RAM808 GMMN-EGSS
Flight info
| Callsign | RAM808 |
|---|---|
| Flight time | 2h 43m |
| Altitude | 38000 |
| Route | LAKAM UR722 AMSEL DCT ALAGU DCT ELVAR DCT BARDI DCT ZMR DCT NUBLO N873 DELOG DCT FUJTI DCT IDNUN DCT ATGEB DCT DIKRO UM185 ADLOG M185 TELTU |
| Aircraft | B738/M-SDE3FGHIRWY/LB1 |
Departure
| Time | 2026-05-05 13:18 |
|---|---|
| Airport | Mohammed V International Airport (GMMN) |
Arrival
| Time | 2026-05-05 16:02 |
|---|---|
| Airport | London Stansted Airport (EGSS) |
| Time | Latitude | Longitude | Altitude | Speed | Heading |
|---|---|---|---|---|---|
| 2026-05-05 12:38 | 33.37243 | -7.58207 | 679 ft | 0 kts | 65° |
| 2026-05-05 13:08 | 33.37235 | -7.58226 | 652 ft | 4 kts | 60° |
| 2026-05-05 13:09 | 33.37223 | -7.58254 | 654 ft | 4 kts | 76° |
| 2026-05-05 13:09 | 33.37222 | -7.58280 | 652 ft | 4 kts | 100° |
| 2026-05-05 13:09 | 33.37231 | -7.58308 | 654 ft | 4 kts | 138° |
| 2026-05-05 13:09 | 33.37247 | -7.58319 | 654 ft | 0 kts | 164° |
| 2026-05-05 13:12 | 33.37243 | -7.58318 | 654 ft | 2 kts | 164° |
| 2026-05-05 13:12 | 33.37215 | -7.58308 | 653 ft | 7 kts | 164° |
| 2026-05-05 13:13 | 33.37154 | -7.58288 | 652 ft | 12 kts | 164° |
| 2026-05-05 13:13 | 33.37065 | -7.58258 | 652 ft | 14 kts | 164° |
| 2026-05-05 13:13 | 33.36973 | -7.58234 | 652 ft | 13 kts | 184° |
| 2026-05-05 13:13 | 33.36924 | -7.58324 | 653 ft | 15 kts | 255° |
| 2026-05-05 13:14 | 33.36877 | -7.58448 | 652 ft | 18 kts | 210° |
| 2026-05-05 13:14 | 33.36744 | -7.58425 | 652 ft | 21 kts | 165° |
| 2026-05-05 13:14 | 33.36595 | -7.58374 | 652 ft | 22 kts | 163° |
| 2026-05-05 13:14 | 33.36449 | -7.58323 | 652 ft | 22 kts | 163° |
| 2026-05-05 13:15 | 33.36306 | -7.58272 | 654 ft | 21 kts | 163° |
| 2026-05-05 13:15 | 33.36168 | -7.58223 | 653 ft | 20 kts | 163° |
| 2026-05-05 13:15 | 33.36033 | -7.58179 | 652 ft | 20 kts | 166° |
| 2026-05-05 13:15 | 33.35903 | -7.58136 | 651 ft | 19 kts | 164° |
| 2026-05-05 13:16 | 33.35777 | -7.58093 | 651 ft | 19 kts | 163° |
| 2026-05-05 13:16 | 33.35657 | -7.58051 | 651 ft | 18 kts | 163° |
| 2026-05-05 13:16 | 33.35538 | -7.58009 | 651 ft | 17 kts | 163° |
| 2026-05-05 13:16 | 33.35424 | -7.57970 | 654 ft | 17 kts | 167° |
| 2026-05-05 13:17 | 33.35307 | -7.57948 | 652 ft | 17 kts | 188° |
| 2026-05-05 13:17 | 33.35240 | -7.58053 | 654 ft | 17 kts | 251° |
| 2026-05-05 13:17 | 33.35213 | -7.58187 | 653 ft | 16 kts | 260° |
| 2026-05-05 13:17 | 33.35274 | -7.58282 | 653 ft | 16 kts | 338° |
| 2026-05-05 13:18 | 33.35394 | -7.58322 | 649 ft | 26 kts | 343° |
| 2026-05-05 13:18 | 33.35842 | -7.58479 | 644 ft | 109 kts | 343° |
| 2026-05-05 13:18 | 33.36800 | -7.58734 | 832 ft | 160 kts | 353° |
| 2026-05-05 13:18 | 33.37873 | -7.58942 | 1983 ft | 146 kts | 352° |
| 2026-05-05 13:19 | 33.38894 | -7.59089 | 3015 ft | 153 kts | 352° |
| 2026-05-05 13:19 | 33.39943 | -7.59554 | 3526 ft | 178 kts | 329° |
| 2026-05-05 13:19 | 33.41012 | -7.60538 | 3952 ft | 205 kts | 318° |
| 2026-05-05 13:19 | 33.42159 | -7.61726 | 4201 ft | 232 kts | 319° |
| 2026-05-05 13:20 | 33.43455 | -7.63026 | 4704 ft | 245 kts | 318° |
| 2026-05-05 13:20 | 33.44731 | -7.64416 | 5508 ft | 248 kts | 311° |
| 2026-05-05 13:20 | 33.45803 | -7.65964 | 6570 ft | 241 kts | 301° |
| 2026-05-05 13:20 | 33.46724 | -7.67650 | 7383 ft | 244 kts | 299° |
| 2026-05-05 13:21 | 33.47631 | -7.69398 | 8182 ft | 250 kts | 298° |
| 2026-05-05 13:21 | 33.48558 | -7.71173 | 9062 ft | 252 kts | 300° |
| 2026-05-05 13:21 | 33.49499 | -7.72957 | 9903 ft | 256 kts | 300° |
| 2026-05-05 13:21 | 33.50459 | -7.74764 | 10701 ft | 258 kts | 299° |
| 2026-05-05 13:22 | 33.51429 | -7.76586 | 11473 ft | 261 kts | 299° |
| 2026-05-05 13:22 | 33.52412 | -7.78420 | 12251 ft | 263 kts | 300° |
| 2026-05-05 13:22 | 33.53411 | -7.80276 | 13054 ft | 266 kts | 299° |
| 2026-05-05 13:22 | 33.54417 | -7.82148 | 13798 ft | 269 kts | 299° |
| 2026-05-05 13:23 | 33.55435 | -7.84044 | 14482 ft | 272 kts | 299° |
| 2026-05-05 13:23 | 33.56462 | -7.85953 | 15175 ft | 273 kts | 300° |
| 2026-05-05 13:23 | 33.57792 | -7.87629 | 15832 ft | 285 kts | 321° |
| 2026-05-05 13:23 | 33.59627 | -7.88645 | 16445 ft | 300 kts | 339° |
| 2026-05-05 13:24 | 33.61798 | -7.88859 | 16608 ft | 332 kts | 3° |
| 2026-05-05 13:24 | 33.64156 | -7.88365 | 16803 ft | 355 kts | 7° |
| 2026-05-05 13:24 | 33.66642 | -7.87711 | 16959 ft | 376 kts | 9° |
| 2026-05-05 13:24 | 33.69256 | -7.86984 | 17103 ft | 395 kts | 9° |
| 2026-05-05 13:25 | 33.71983 | -7.86223 | 17396 ft | 408 kts | 9° |
| 2026-05-05 13:25 | 33.74771 | -7.85454 | 17928 ft | 414 kts | 9° |
| 2026-05-05 13:25 | 33.77590 | -7.84689 | 18554 ft | 416 kts | 9° |
| 2026-05-05 13:25 | 33.80418 | -7.83931 | 19138 ft | 418 kts | 8° |
| 2026-05-05 13:26 | 33.83262 | -7.83176 | 19721 ft | 420 kts | 8° |
| 2026-05-05 13:26 | 33.86120 | -7.82421 | 20282 ft | 422 kts | 8° |
| 2026-05-05 13:26 | 33.88999 | -7.81662 | 20824 ft | 425 kts | 8° |
| 2026-05-05 13:26 | 33.91898 | -7.80899 | 21351 ft | 428 kts | 8° |
| 2026-05-05 13:27 | 33.94815 | -7.80129 | 21869 ft | 431 kts | 8° |
| 2026-05-05 13:27 | 33.97754 | -7.79353 | 22363 ft | 434 kts | 8° |
| 2026-05-05 13:27 | 34.00711 | -7.78572 | 22854 ft | 437 kts | 8° |
| 2026-05-05 13:27 | 34.03655 | -7.77793 | 23323 ft | 440 kts | 8° |
| 2026-05-05 13:28 | 34.06651 | -7.76999 | 23771 ft | 443 kts | 8° |
| 2026-05-05 13:28 | 34.09669 | -7.76199 | 24174 ft | 445 kts | 8° |
| 2026-05-05 13:28 | 34.12708 | -7.75392 | 24589 ft | 447 kts | 8° |
| 2026-05-05 13:28 | 34.15753 | -7.74584 | 24997 ft | 449 kts | 9° |
| 2026-05-05 13:29 | 34.18816 | -7.73840 | 25385 ft | 449 kts | 3° |
| 2026-05-05 13:29 | 34.21921 | -7.73824 | 25754 ft | 446 kts | 353° |
| 2026-05-05 13:29 | 34.25025 | -7.74079 | 26149 ft | 447 kts | 352° |
| 2026-05-05 13:29 | 34.28129 | -7.74358 | 26499 ft | 450 kts | 352° |
| 2026-05-05 13:30 | 34.31259 | -7.74631 | 26860 ft | 452 kts | 352° |
| 2026-05-05 13:30 | 34.34414 | -7.74885 | 27201 ft | 455 kts | 353° |
| 2026-05-05 13:30 | 34.37576 | -7.75124 | 27555 ft | 457 kts | 353° |
| 2026-05-05 13:30 | 34.40759 | -7.75352 | 27894 ft | 459 kts | 353° |
| 2026-05-05 13:31 | 34.43957 | -7.75576 | 28219 ft | 462 kts | 353° |
| 2026-05-05 13:31 | 34.47165 | -7.75799 | 28531 ft | 464 kts | 353° |
| 2026-05-05 13:31 | 34.50406 | -7.76025 | 28833 ft | 466 kts | 353° |
| 2026-05-05 13:31 | 34.53649 | -7.76252 | 29120 ft | 469 kts | 353° |
| 2026-05-05 13:32 | 34.56913 | -7.76481 | 29426 ft | 471 kts | 353° |
| 2026-05-05 13:32 | 34.60199 | -7.76712 | 29704 ft | 474 kts | 353° |
| 2026-05-05 13:32 | 34.63497 | -7.76945 | 29986 ft | 476 kts | 353° |
| 2026-05-05 13:32 | 34.66798 | -7.77177 | 30353 ft | 475 kts | 353° |
| 2026-05-05 13:33 | 34.70086 | -7.77408 | 30760 ft | 472 kts | 353° |
| 2026-05-05 13:33 | 34.73361 | -7.77639 | 31155 ft | 470 kts | 353° |
| 2026-05-05 13:33 | 34.76623 | -7.77880 | 31509 ft | 469 kts | 352° |
| 2026-05-05 13:33 | 34.79884 | -7.78145 | 31835 ft | 469 kts | 352° |
| 2026-05-05 13:34 | 34.83134 | -7.78419 | 32188 ft | 467 kts | 352° |
| 2026-05-05 13:34 | 34.86364 | -7.78693 | 32571 ft | 465 kts | 352° |
| 2026-05-05 13:34 | 34.89586 | -7.78966 | 32948 ft | 464 kts | 352° |
| 2026-05-05 13:34 | 34.92804 | -7.79237 | 33293 ft | 463 kts | 352° |
| 2026-05-05 13:35 | 34.96010 | -7.79505 | 33609 ft | 462 kts | 352° |
| 2026-05-05 13:35 | 34.99222 | -7.79773 | 33916 ft | 462 kts | 352° |
| 2026-05-05 13:35 | 35.02422 | -7.80040 | 34208 ft | 461 kts | 352° |
| 2026-05-05 13:35 | 35.05617 | -7.80306 | 34460 ft | 461 kts | 352° |
| 2026-05-05 13:36 | 35.08825 | -7.80574 | 34654 ft | 462 kts | 351° |
| 2026-05-05 13:36 | 35.11991 | -7.80838 | 34873 ft | 462 kts | 351° |
| 2026-05-05 13:36 | 35.15199 | -7.81106 | 35112 ft | 462 kts | 351° |
| 2026-05-05 13:36 | 35.18401 | -7.81373 | 35350 ft | 462 kts | 351° |
| 2026-05-05 13:37 | 35.21649 | -7.81644 | 35586 ft | 461 kts | 351° |
| 2026-05-05 13:37 | 35.24811 | -7.81908 | 35838 ft | 461 kts | 351° |
| 2026-05-05 13:37 | 35.28004 | -7.82175 | 36079 ft | 460 kts | 351° |
| 2026-05-05 13:37 | 35.31247 | -7.82447 | 36311 ft | 460 kts | 351° |
| 2026-05-05 13:38 | 35.34434 | -7.82715 | 36534 ft | 460 kts | 351° |
| 2026-05-05 13:38 | 35.37619 | -7.82982 | 36764 ft | 459 kts | 351° |
| 2026-05-05 13:38 | 35.40768 | -7.83246 | 36981 ft | 459 kts | 351° |
| 2026-05-05 13:38 | 35.43992 | -7.83524 | 37095 ft | 460 kts | 350° |
| 2026-05-05 13:39 | 35.50355 | -7.84098 | 37103 ft | 461 kts | 350° |
| 2026-05-05 13:39 | 35.56726 | -7.84675 | 37098 ft | 457 kts | 350° |
| 2026-05-05 13:40 | 35.63040 | -7.85246 | 37099 ft | 454 kts | 350° |
| 2026-05-05 13:40 | 35.69328 | -7.85814 | 37097 ft | 452 kts | 350° |
| 2026-05-05 13:41 | 35.75593 | -7.86382 | 37104 ft | 451 kts | 350° |
| 2026-05-05 13:41 | 35.81868 | -7.86952 | 37105 ft | 452 kts | 350° |
| 2026-05-05 13:42 | 35.88154 | -7.87523 | 37104 ft | 454 kts | 350° |
| 2026-05-05 13:42 | 35.94470 | -7.88097 | 37107 ft | 456 kts | 350° |
| 2026-05-05 13:43 | 36.00872 | -7.87955 | 37114 ft | 465 kts | 0° |
| 2026-05-05 13:43 | 36.07336 | -7.87104 | 37101 ft | 468 kts | 1° |
| 2026-05-05 13:44 | 36.13806 | -7.86221 | 37100 ft | 469 kts | 1° |
| 2026-05-05 13:44 | 36.20269 | -7.85386 | 37093 ft | 469 kts | 0° |
| 2026-05-05 13:45 | 36.26808 | -7.84570 | 37090 ft | 469 kts | 0° |
| 2026-05-05 13:45 | 36.33305 | -7.83764 | 37088 ft | 468 kts | 0° |
| 2026-05-05 13:46 | 36.39741 | -7.82964 | 37089 ft | 467 kts | 0° |
| 2026-05-05 13:46 | 36.46190 | -7.82160 | 37081 ft | 466 kts | 0° |
| 2026-05-05 13:47 | 36.52646 | -7.81353 | 37084 ft | 465 kts | 0° |
| 2026-05-05 13:47 | 36.59080 | -7.80548 | 37077 ft | 464 kts | 360° |
| 2026-05-05 13:48 | 36.65498 | -7.79743 | 37078 ft | 463 kts | 360° |
| 2026-05-05 13:48 | 36.71895 | -7.78940 | 37067 ft | 462 kts | 360° |
| 2026-05-05 13:49 | 36.78292 | -7.78135 | 37064 ft | 462 kts | 360° |
| 2026-05-05 13:49 | 36.84675 | -7.77331 | 37057 ft | 461 kts | 360° |
| 2026-05-05 13:50 | 36.89979 | -7.76662 | 37058 ft | 461 kts | 360° |
| 2026-05-05 13:50 | 36.96369 | -7.75854 | 37054 ft | 461 kts | 360° |
| 2026-05-05 13:51 | 37.02760 | -7.75045 | 37053 ft | 461 kts | 359° |
| 2026-05-05 13:51 | 37.09156 | -7.74234 | 37061 ft | 462 kts | 359° |
| 2026-05-05 13:52 | 37.15267 | -7.73458 | 37056 ft | 462 kts | 359° |
| 2026-05-05 13:52 | 37.21660 | -7.72645 | 37050 ft | 463 kts | 359° |
| 2026-05-05 13:53 | 37.28075 | -7.71827 | 37052 ft | 463 kts | 359° |
| 2026-05-05 13:53 | 37.34489 | -7.71009 | 37176 ft | 465 kts | 359° |
| 2026-05-05 13:54 | 37.37698 | -7.70598 | 37449 ft | 463 kts | 359° |
| 2026-05-05 13:54 | 37.40903 | -7.70186 | 37745 ft | 461 kts | 359° |
| 2026-05-05 13:54 | 37.44087 | -7.69777 | 37987 ft | 459 kts | 359° |
| 2026-05-05 13:54 | 37.47274 | -7.69369 | 38043 ft | 462 kts | 359° |
| 2026-05-05 13:55 | 37.53679 | -7.68549 | 38046 ft | 462 kts | 359° |
| 2026-05-05 13:55 | 37.60054 | -7.67727 | 38046 ft | 459 kts | 359° |
| 2026-05-05 13:56 | 37.66385 | -7.66910 | 38045 ft | 456 kts | 359° |
| 2026-05-05 13:56 | 37.72687 | -7.66097 | 38047 ft | 454 kts | 359° |
| 2026-05-05 13:57 | 37.78917 | -7.65293 | 38052 ft | 453 kts | 359° |
| 2026-05-05 13:57 | 37.85183 | -7.64483 | 38058 ft | 453 kts | 359° |
| 2026-05-05 13:58 | 37.91457 | -7.63670 | 38052 ft | 454 kts | 359° |
| 2026-05-05 13:58 | 37.97788 | -7.62848 | 38059 ft | 456 kts | 359° |
| 2026-05-05 13:59 | 38.07235 | -7.61597 | 38058 ft | 460 kts | 2° |
| 2026-05-05 14:00 | 38.13523 | -7.59288 | 38060 ft | 474 kts | 15° |
| 2026-05-05 14:00 | 38.16541 | -7.57739 | 38049 ft | 476 kts | 16° |
| 2026-05-05 14:00 | 38.22665 | -7.54510 | 38044 ft | 477 kts | 16° |
| 2026-05-05 14:01 | 38.28795 | -7.51317 | 38036 ft | 476 kts | 15° |
| 2026-05-05 14:01 | 38.34940 | -7.48166 | 38036 ft | 475 kts | 15° |
| 2026-05-05 14:02 | 38.41073 | -7.45036 | 38034 ft | 474 kts | 15° |
| 2026-05-05 14:02 | 38.47196 | -7.42000 | 38029 ft | 471 kts | 13° |
| 2026-05-05 14:03 | 38.53343 | -7.39214 | 38032 ft | 468 kts | 12° |
| 2026-05-05 14:03 | 38.59517 | -7.36779 | 38036 ft | 464 kts | 12° |
| 2026-05-05 14:04 | 38.65619 | -7.34056 | 38043 ft | 464 kts | 13° |
| 2026-05-05 14:04 | 38.71703 | -7.31245 | 38035 ft | 464 kts | 13° |
| 2026-05-05 14:05 | 38.77732 | -7.28479 | 38031 ft | 462 kts | 10° |
| 2026-05-05 14:05 | 38.83889 | -7.26285 | 38040 ft | 459 kts | 8° |
| 2026-05-05 14:06 | 38.90076 | -7.24248 | 38032 ft | 459 kts | 7° |
| 2026-05-05 14:06 | 38.96276 | -7.22234 | 38030 ft | 459 kts | 7° |
| 2026-05-05 14:07 | 39.02444 | -7.19997 | 38027 ft | 466 kts | 15° |
| 2026-05-05 14:07 | 39.08409 | -7.16646 | 38027 ft | 470 kts | 18° |
| 2026-05-05 14:08 | 39.14364 | -7.13135 | 38033 ft | 470 kts | 18° |
| 2026-05-05 14:08 | 39.20334 | -7.09694 | 38027 ft | 470 kts | 18° |
| 2026-05-05 14:09 | 39.26334 | -7.06297 | 38016 ft | 471 kts | 17° |
| 2026-05-05 14:09 | 39.32337 | -7.02912 | 38019 ft | 471 kts | 17° |
| 2026-05-05 14:10 | 39.38339 | -6.99521 | 38021 ft | 471 kts | 17° |
| 2026-05-05 14:10 | 39.44335 | -6.96122 | 38015 ft | 470 kts | 17° |
| 2026-05-05 14:11 | 39.50323 | -6.92721 | 38013 ft | 470 kts | 17° |
| 2026-05-05 14:11 | 39.56262 | -6.89342 | 38011 ft | 469 kts | 18° |
| 2026-05-05 14:12 | 39.62224 | -6.85942 | 38008 ft | 468 kts | 18° |
| 2026-05-05 14:12 | 39.68186 | -6.82537 | 38000 ft | 467 kts | 18° |
| 2026-05-05 14:13 | 39.74131 | -6.79135 | 38009 ft | 466 kts | 18° |
| 2026-05-05 14:13 | 39.80063 | -6.75734 | 38002 ft | 466 kts | 18° |
| 2026-05-05 14:14 | 39.85991 | -6.72328 | 38008 ft | 465 kts | 18° |
| 2026-05-05 14:14 | 39.91904 | -6.68925 | 38000 ft | 465 kts | 18° |
| 2026-05-05 14:15 | 39.97807 | -6.65521 | 38007 ft | 464 kts | 18° |
| 2026-05-05 14:15 | 40.03714 | -6.62109 | 38000 ft | 463 kts | 18° |
| 2026-05-05 14:16 | 40.09608 | -6.58697 | 38007 ft | 463 kts | 18° |
| 2026-05-05 14:16 | 40.15498 | -6.55281 | 37988 ft | 463 kts | 18° |
| 2026-05-05 14:17 | 40.21370 | -6.51869 | 37989 ft | 462 kts | 18° |
| 2026-05-05 14:17 | 40.27198 | -6.48477 | 38014 ft | 462 kts | 18° |
| 2026-05-05 14:18 | 40.33080 | -6.45047 | 37992 ft | 463 kts | 18° |
| 2026-05-05 14:18 | 40.38962 | -6.41609 | 38004 ft | 463 kts | 18° |
| 2026-05-05 14:19 | 40.44845 | -6.38165 | 37999 ft | 463 kts | 18° |
| 2026-05-05 14:19 | 40.50725 | -6.34714 | 37997 ft | 463 kts | 18° |
| 2026-05-05 14:20 | 40.56607 | -6.31257 | 38001 ft | 463 kts | 18° |
| 2026-05-05 14:20 | 40.62430 | -6.27586 | 37998 ft | 466 kts | 22° |
| 2026-05-05 14:21 | 40.68154 | -6.23582 | 38001 ft | 467 kts | 23° |
| 2026-05-05 14:21 | 40.73885 | -6.19541 | 37998 ft | 467 kts | 22° |
| 2026-05-05 14:22 | 40.79622 | -6.15538 | 37988 ft | 466 kts | 22° |
| 2026-05-05 14:22 | 40.85365 | -6.11550 | 38002 ft | 466 kts | 22° |
| 2026-05-05 14:23 | 40.91107 | -6.07560 | 37989 ft | 466 kts | 22° |
| 2026-05-05 14:23 | 40.96843 | -6.03564 | 37986 ft | 466 kts | 22° |
| 2026-05-05 14:24 | 41.02537 | -5.99588 | 37995 ft | 465 kts | 22° |
| 2026-05-05 14:24 | 41.08260 | -5.95584 | 37985 ft | 465 kts | 23° |
| 2026-05-05 14:25 | 41.13975 | -5.91578 | 37987 ft | 465 kts | 23° |
| 2026-05-05 14:25 | 41.19700 | -5.87556 | 37987 ft | 465 kts | 23° |
| 2026-05-05 14:26 | 41.25416 | -5.83533 | 37986 ft | 465 kts | 23° |
| 2026-05-05 14:26 | 41.31130 | -5.79503 | 37982 ft | 465 kts | 23° |
| 2026-05-05 14:27 | 41.36848 | -5.75462 | 37981 ft | 465 kts | 24° |
| 2026-05-05 14:27 | 41.42565 | -5.71413 | 37987 ft | 466 kts | 24° |
| 2026-05-05 14:28 | 41.48288 | -5.67352 | 37991 ft | 466 kts | 24° |
| 2026-05-05 14:28 | 41.54035 | -5.63340 | 37979 ft | 465 kts | 20° |
| 2026-05-05 14:29 | 41.59952 | -5.59917 | 37979 ft | 463 kts | 18° |
| 2026-05-05 14:29 | 41.65922 | -5.56655 | 37982 ft | 464 kts | 18° |
| 2026-05-05 14:30 | 41.71885 | -5.53349 | 37987 ft | 464 kts | 19° |
| 2026-05-05 14:30 | 41.77841 | -5.49992 | 37985 ft | 465 kts | 19° |
| 2026-05-05 14:31 | 41.83798 | -5.46610 | 37979 ft | 465 kts | 19° |
| 2026-05-05 14:31 | 41.89750 | -5.43223 | 37982 ft | 465 kts | 19° |
| 2026-05-05 14:32 | 41.95700 | -5.39832 | 37990 ft | 465 kts | 19° |
| 2026-05-05 14:32 | 42.01655 | -5.36433 | 37975 ft | 465 kts | 19° |
| 2026-05-05 14:33 | 42.07565 | -5.33053 | 37980 ft | 465 kts | 19° |
| 2026-05-05 14:33 | 42.13510 | -5.29645 | 37978 ft | 464 kts | 19° |
| 2026-05-05 14:34 | 42.19461 | -5.26228 | 37980 ft | 465 kts | 19° |
| 2026-05-05 14:34 | 42.25408 | -5.22805 | 37980 ft | 464 kts | 19° |
| 2026-05-05 14:35 | 42.31350 | -5.19378 | 37982 ft | 464 kts | 20° |
| 2026-05-05 14:35 | 42.37292 | -5.15944 | 37978 ft | 464 kts | 20° |
| 2026-05-05 14:36 | 42.43232 | -5.12505 | 37975 ft | 464 kts | 20° |
| 2026-05-05 14:36 | 42.49169 | -5.09059 | 37983 ft | 465 kts | 20° |
| 2026-05-05 14:37 | 42.55112 | -5.05603 | 37988 ft | 465 kts | 20° |
| 2026-05-05 14:37 | 42.61048 | -5.02144 | 37989 ft | 465 kts | 20° |
| 2026-05-05 14:38 | 42.66995 | -4.98672 | 37975 ft | 465 kts | 20° |
| 2026-05-05 14:38 | 42.72943 | -4.95193 | 37976 ft | 465 kts | 20° |
| 2026-05-05 14:39 | 42.77886 | -4.92297 | 37980 ft | 465 kts | 20° |
| 2026-05-05 14:39 | 42.83824 | -4.88810 | 37980 ft | 465 kts | 20° |
| 2026-05-05 14:40 | 42.89766 | -4.85312 | 37991 ft | 465 kts | 20° |
| 2026-05-05 14:40 | 42.95706 | -4.81809 | 37999 ft | 465 kts | 20° |
| 2026-05-05 14:41 | 43.01649 | -4.78298 | 37998 ft | 466 kts | 20° |
| 2026-05-05 14:41 | 43.07601 | -4.74772 | 38008 ft | 466 kts | 20° |
| 2026-05-05 14:42 | 43.13549 | -4.71241 | 38012 ft | 466 kts | 20° |
| 2026-05-05 14:42 | 43.19501 | -4.67701 | 38014 ft | 466 kts | 20° |
| 2026-05-05 14:43 | 43.25450 | -4.64155 | 38028 ft | 465 kts | 21° |
| 2026-05-05 14:43 | 43.31389 | -4.60607 | 38003 ft | 466 kts | 21° |
| 2026-05-05 14:44 | 43.37320 | -4.57056 | 38004 ft | 465 kts | 21° |
| 2026-05-05 14:44 | 43.43245 | -4.53501 | 38012 ft | 464 kts | 21° |
| 2026-05-05 14:45 | 43.49164 | -4.49943 | 38013 ft | 464 kts | 21° |
| 2026-05-05 14:45 | 43.55076 | -4.46385 | 38010 ft | 464 kts | 21° |
| 2026-05-05 14:46 | 43.60991 | -4.42817 | 38007 ft | 463 kts | 21° |
| 2026-05-05 14:46 | 43.66897 | -4.39247 | 38008 ft | 464 kts | 21° |
| 2026-05-05 14:47 | 43.72802 | -4.35669 | 38006 ft | 464 kts | 21° |
| 2026-05-05 14:47 | 43.78712 | -4.32079 | 38002 ft | 464 kts | 21° |
| 2026-05-05 14:48 | 43.84631 | -4.28477 | 38000 ft | 465 kts | 21° |
| 2026-05-05 14:48 | 43.90514 | -4.24889 | 37994 ft | 465 kts | 21° |
| 2026-05-05 14:49 | 43.96439 | -4.21267 | 37996 ft | 466 kts | 22° |
| 2026-05-05 14:49 | 44.02370 | -4.17634 | 37988 ft | 466 kts | 22° |
| 2026-05-05 14:50 | 44.08301 | -4.13992 | 37988 ft | 466 kts | 22° |
| 2026-05-05 14:50 | 44.14241 | -4.10337 | 37983 ft | 466 kts | 22° |
| 2026-05-05 14:51 | 44.20176 | -4.06677 | 37979 ft | 467 kts | 22° |
| 2026-05-05 14:51 | 44.26111 | -4.03008 | 37983 ft | 466 kts | 22° |
| 2026-05-05 14:52 | 44.32036 | -3.99338 | 37978 ft | 466 kts | 22° |
| 2026-05-05 14:52 | 44.38019 | -3.95831 | 37982 ft | 466 kts | 20° |
| 2026-05-05 14:53 | 44.44054 | -3.92553 | 37975 ft | 465 kts | 20° |
| 2026-05-05 14:53 | 44.50090 | -3.89268 | 37977 ft | 465 kts | 20° |
| 2026-05-05 14:54 | 44.56107 | -3.85945 | 37974 ft | 465 kts | 20° |
| 2026-05-05 14:54 | 44.62113 | -3.82600 | 37972 ft | 465 kts | 20° |
| 2026-05-05 14:55 | 44.68112 | -3.79246 | 37972 ft | 464 kts | 20° |
| 2026-05-05 14:55 | 44.74118 | -3.75883 | 37969 ft | 464 kts | 20° |
| 2026-05-05 14:56 | 44.80117 | -3.72517 | 37967 ft | 464 kts | 20° |
| 2026-05-05 14:56 | 44.86109 | -3.69149 | 37963 ft | 464 kts | 20° |
| 2026-05-05 14:57 | 44.92099 | -3.65773 | 37963 ft | 464 kts | 20° |
| 2026-05-05 14:57 | 44.98088 | -3.62391 | 37962 ft | 464 kts | 20° |
| 2026-05-05 14:58 | 45.04077 | -3.59000 | 37961 ft | 464 kts | 21° |
| 2026-05-05 14:58 | 45.10063 | -3.55603 | 37959 ft | 464 kts | 20° |
| 2026-05-05 14:59 | 45.16017 | -3.52218 | 37961 ft | 464 kts | 21° |
| 2026-05-05 14:59 | 45.22039 | -3.48785 | 37956 ft | 464 kts | 20° |
| 2026-05-05 15:00 | 45.27013 | -3.45944 | 37951 ft | 464 kts | 21° |
| 2026-05-05 15:00 | 45.33972 | -3.41962 | 37950 ft | 464 kts | 21° |
| 2026-05-05 15:01 | 45.39962 | -3.38524 | 37947 ft | 464 kts | 21° |
| 2026-05-05 15:01 | 45.45946 | -3.35083 | 37952 ft | 464 kts | 21° |
| 2026-05-05 15:02 | 45.51940 | -3.31626 | 37949 ft | 464 kts | 21° |
| 2026-05-05 15:02 | 45.57921 | -3.28170 | 37945 ft | 465 kts | 21° |
| 2026-05-05 15:03 | 45.63919 | -3.24697 | 37939 ft | 465 kts | 21° |
| 2026-05-05 15:03 | 45.69907 | -3.21221 | 37942 ft | 465 kts | 21° |
| 2026-05-05 15:04 | 45.75895 | -3.17736 | 37939 ft | 465 kts | 21° |
| 2026-05-05 15:04 | 45.81886 | -3.14242 | 37934 ft | 465 kts | 21° |
| 2026-05-05 15:05 | 45.90887 | -3.08977 | 37933 ft | 465 kts | 21° |
| 2026-05-05 15:06 | 45.96878 | -3.05462 | 37933 ft | 465 kts | 21° |
| 2026-05-05 15:06 | 46.02873 | -3.01937 | 37930 ft | 465 kts | 21° |
| 2026-05-05 15:07 | 46.08865 | -2.98405 | 37929 ft | 465 kts | 21° |
| 2026-05-05 15:07 | 46.14816 | -2.94889 | 37924 ft | 465 kts | 22° |
| 2026-05-05 15:08 | 46.20803 | -2.91343 | 37925 ft | 465 kts | 22° |
| 2026-05-05 15:08 | 46.26794 | -2.87828 | 37916 ft | 464 kts | 19° |
| 2026-05-05 15:09 | 46.33003 | -2.85299 | 37915 ft | 463 kts | 14° |
| 2026-05-05 15:09 | 46.39237 | -2.83006 | 37920 ft | 463 kts | 14° |
| 2026-05-05 15:10 | 46.45472 | -2.80672 | 37914 ft | 462 kts | 14° |
| 2026-05-05 15:10 | 46.51683 | -2.78296 | 37916 ft | 462 kts | 14° |
| 2026-05-05 15:11 | 46.57888 | -2.75901 | 37918 ft | 461 kts | 15° |
| 2026-05-05 15:11 | 46.64087 | -2.73503 | 37911 ft | 461 kts | 15° |
| 2026-05-05 15:12 | 46.70282 | -2.71102 | 37910 ft | 461 kts | 15° |
| 2026-05-05 15:12 | 46.76479 | -2.68695 | 37912 ft | 461 kts | 15° |
| 2026-05-05 15:13 | 46.82669 | -2.66286 | 37905 ft | 461 kts | 15° |
| 2026-05-05 15:13 | 46.88868 | -2.63867 | 37909 ft | 461 kts | 15° |
| 2026-05-05 15:14 | 46.95054 | -2.61447 | 37905 ft | 461 kts | 15° |
| 2026-05-05 15:14 | 47.01254 | -2.59016 | 37915 ft | 461 kts | 15° |
| 2026-05-05 15:15 | 47.07446 | -2.56583 | 37911 ft | 461 kts | 15° |
| 2026-05-05 15:15 | 47.13541 | -2.53904 | 37918 ft | 460 kts | 20° |
| 2026-05-05 15:16 | 47.19527 | -2.50592 | 37919 ft | 461 kts | 22° |
| 2026-05-05 15:16 | 47.25519 | -2.47176 | 37908 ft | 463 kts | 21° |
| 2026-05-05 15:17 | 47.31526 | -2.43796 | 37905 ft | 462 kts | 21° |
| 2026-05-05 15:17 | 47.37542 | -2.40442 | 37912 ft | 462 kts | 21° |
| 2026-05-05 15:18 | 47.43554 | -2.37096 | 37930 ft | 463 kts | 21° |
| 2026-05-05 15:18 | 47.49586 | -2.33730 | 37923 ft | 463 kts | 21° |
| 2026-05-05 15:19 | 47.55620 | -2.30352 | 37925 ft | 463 kts | 21° |
| 2026-05-05 15:19 | 47.61652 | -2.26965 | 37911 ft | 464 kts | 21° |
| 2026-05-05 15:20 | 47.67684 | -2.23571 | 37904 ft | 463 kts | 21° |
| 2026-05-05 15:20 | 47.73687 | -2.20185 | 37917 ft | 462 kts | 21° |
| 2026-05-05 15:21 | 47.79697 | -2.16788 | 37903 ft | 461 kts | 21° |
| 2026-05-05 15:21 | 47.85686 | -2.13393 | 37912 ft | 460 kts | 22° |
| 2026-05-05 15:22 | 47.91653 | -2.10001 | 37916 ft | 458 kts | 22° |
| 2026-05-05 15:22 | 47.97602 | -2.06612 | 37919 ft | 458 kts | 22° |
| 2026-05-05 15:23 | 48.03551 | -2.03215 | 37915 ft | 458 kts | 22° |
| 2026-05-05 15:23 | 48.09519 | -1.99797 | 37914 ft | 459 kts | 22° |
| 2026-05-05 15:24 | 48.15489 | -1.96370 | 37922 ft | 460 kts | 22° |
| 2026-05-05 15:24 | 48.21487 | -1.92919 | 37919 ft | 462 kts | 22° |
| 2026-05-05 15:25 | 48.27503 | -1.89448 | 37907 ft | 464 kts | 22° |
| 2026-05-05 15:25 | 48.33532 | -1.85962 | 37917 ft | 464 kts | 22° |
| 2026-05-05 15:26 | 48.39523 | -1.82488 | 37925 ft | 464 kts | 22° |
| 2026-05-05 15:26 | 48.45538 | -1.78991 | 37929 ft | 464 kts | 22° |
| 2026-05-05 15:27 | 48.51565 | -1.75479 | 37930 ft | 464 kts | 22° |
| 2026-05-05 15:27 | 48.57581 | -1.71964 | 37928 ft | 464 kts | 22° |
| 2026-05-05 15:28 | 48.62618 | -1.69013 | 37930 ft | 464 kts | 22° |
| 2026-05-05 15:28 | 48.68635 | -1.65482 | 37926 ft | 464 kts | 22° |
| 2026-05-05 15:29 | 48.74643 | -1.61924 | 37914 ft | 464 kts | 22° |
| 2026-05-05 15:29 | 48.80649 | -1.58340 | 37917 ft | 464 kts | 22° |
| 2026-05-05 15:30 | 48.86625 | -1.54768 | 37919 ft | 465 kts | 22° |
| 2026-05-05 15:30 | 48.92641 | -1.51164 | 37921 ft | 465 kts | 22° |
| 2026-05-05 15:31 | 48.98653 | -1.47555 | 37922 ft | 465 kts | 22° |
| 2026-05-05 15:31 | 49.04678 | -1.43928 | 37922 ft | 466 kts | 22° |
| 2026-05-05 15:32 | 49.10712 | -1.40287 | 37918 ft | 466 kts | 22° |
| 2026-05-05 15:32 | 49.16746 | -1.36636 | 37926 ft | 467 kts | 22° |
| 2026-05-05 15:33 | 49.22779 | -1.32976 | 37924 ft | 467 kts | 22° |
| 2026-05-05 15:33 | 49.28818 | -1.29302 | 37925 ft | 467 kts | 22° |
| 2026-05-05 15:34 | 49.34867 | -1.25612 | 37926 ft | 468 kts | 22° |
| 2026-05-05 15:34 | 49.40915 | -1.21913 | 37932 ft | 468 kts | 22° |
| 2026-05-05 15:35 | 49.46955 | -1.18209 | 37934 ft | 468 kts | 22° |
| 2026-05-05 15:35 | 49.52995 | -1.14495 | 37937 ft | 467 kts | 22° |
| 2026-05-05 15:36 | 49.58944 | -1.10492 | 37928 ft | 466 kts | 31° |
| 2026-05-05 15:36 | 49.64147 | -1.04598 | 37931 ft | 464 kts | 40° |
| 2026-05-05 15:37 | 49.69212 | -0.98407 | 37926 ft | 464 kts | 39° |
| 2026-05-05 15:37 | 49.74510 | -0.92714 | 37559 ft | 470 kts | 27° |
| 2026-05-05 15:37 | 49.77550 | -0.90824 | 37044 ft | 469 kts | 17° |
| 2026-05-05 15:38 | 49.80720 | -0.89746 | 36487 ft | 467 kts | 7° |
| 2026-05-05 15:38 | 49.83950 | -0.89289 | 35901 ft | 465 kts | 5° |
| 2026-05-05 15:38 | 49.87180 | -0.88923 | 35235 ft | 466 kts | 5° |
| 2026-05-05 15:38 | 49.90374 | -0.88550 | 34581 ft | 467 kts | 5° |
| 2026-05-05 15:39 | 49.93616 | -0.88127 | 33873 ft | 468 kts | 5° |
| 2026-05-05 15:39 | 49.96910 | -0.87659 | 33036 ft | 470 kts | 6° |
| 2026-05-05 15:39 | 50.00146 | -0.87187 | 32540 ft | 464 kts | 6° |
| 2026-05-05 15:39 | 50.03348 | -0.86724 | 31982 ft | 460 kts | 6° |
| 2026-05-05 15:40 | 50.06478 | -0.86280 | 31470 ft | 456 kts | 6° |
| 2026-05-05 15:40 | 50.09621 | -0.85838 | 30973 ft | 452 kts | 6° |
| 2026-05-05 15:40 | 50.12731 | -0.85400 | 30483 ft | 448 kts | 6° |
| 2026-05-05 15:40 | 50.15826 | -0.84963 | 30003 ft | 444 kts | 6° |
| 2026-05-05 15:41 | 50.18885 | -0.84529 | 29441 ft | 440 kts | 6° |
| 2026-05-05 15:41 | 50.21919 | -0.84097 | 28948 ft | 435 kts | 6° |
| 2026-05-05 15:41 | 50.24914 | -0.83670 | 28460 ft | 430 kts | 6° |
| 2026-05-05 15:41 | 50.27875 | -0.83247 | 27972 ft | 425 kts | 6° |
| 2026-05-05 15:42 | 50.30813 | -0.82828 | 27487 ft | 421 kts | 6° |
| 2026-05-05 15:42 | 50.33712 | -0.82412 | 27020 ft | 416 kts | 6° |
| 2026-05-05 15:42 | 50.36579 | -0.81996 | 26577 ft | 411 kts | 6° |
| 2026-05-05 15:42 | 50.39419 | -0.81580 | 26095 ft | 408 kts | 6° |
| 2026-05-05 15:43 | 50.42232 | -0.81166 | 25628 ft | 405 kts | 5° |
| 2026-05-05 15:43 | 50.45017 | -0.80757 | 25166 ft | 401 kts | 5° |
| 2026-05-05 15:43 | 50.47790 | -0.80350 | 24711 ft | 398 kts | 5° |
| 2026-05-05 15:43 | 50.50537 | -0.79946 | 24257 ft | 395 kts | 5° |
| 2026-05-05 15:44 | 50.53264 | -0.79544 | 23806 ft | 392 kts | 5° |
| 2026-05-05 15:44 | 50.55965 | -0.79147 | 23325 ft | 389 kts | 5° |
| 2026-05-05 15:44 | 50.58644 | -0.78752 | 22806 ft | 385 kts | 5° |
| 2026-05-05 15:44 | 50.61297 | -0.78361 | 22354 ft | 381 kts | 5° |
| 2026-05-05 15:45 | 50.63918 | -0.77978 | 21924 ft | 376 kts | 5° |
| 2026-05-05 15:45 | 50.66512 | -0.77605 | 21454 ft | 373 kts | 5° |
| 2026-05-05 15:45 | 50.69083 | -0.77236 | 21012 ft | 370 kts | 5° |
| 2026-05-05 15:45 | 50.71638 | -0.76869 | 20568 ft | 367 kts | 5° |
| 2026-05-05 15:46 | 50.74172 | -0.76504 | 20130 ft | 364 kts | 5° |
| 2026-05-05 15:46 | 50.76683 | -0.76141 | 19691 ft | 362 kts | 5° |
| 2026-05-05 15:46 | 50.79181 | -0.75779 | 19263 ft | 360 kts | 5° |
| 2026-05-05 15:46 | 50.81648 | -0.75228 | 18874 ft | 356 kts | 17° |
| 2026-05-05 15:47 | 50.83933 | -0.73857 | 18714 ft | 348 kts | 22° |
| 2026-05-05 15:47 | 50.85410 | -0.72891 | 18570 ft | 348 kts | 22° |
| 2026-05-05 15:47 | 50.88441 | -0.70880 | 18307 ft | 358 kts | 22° |
| 2026-05-05 15:47 | 50.90761 | -0.69347 | 18082 ft | 362 kts | 22° |
| 2026-05-05 15:48 | 50.93079 | -0.67825 | 17844 ft | 359 kts | 22° |
| 2026-05-05 15:48 | 50.95382 | -0.66322 | 17624 ft | 356 kts | 22° |
| 2026-05-05 15:48 | 50.97662 | -0.64839 | 17412 ft | 353 kts | 22° |
| 2026-05-05 15:48 | 50.99907 | -0.63382 | 17213 ft | 350 kts | 22° |
| 2026-05-05 15:49 | 51.02129 | -0.61940 | 17016 ft | 349 kts | 22° |
| 2026-05-05 15:49 | 51.04376 | -0.60482 | 16823 ft | 348 kts | 22° |
| 2026-05-05 15:49 | 51.06608 | -0.59033 | 16640 ft | 347 kts | 22° |
| 2026-05-05 15:49 | 51.08836 | -0.57585 | 16428 ft | 347 kts | 22° |
| 2026-05-05 15:50 | 51.11068 | -0.56132 | 16235 ft | 347 kts | 22° |
| 2026-05-05 15:50 | 51.13299 | -0.54678 | 16037 ft | 347 kts | 22° |
| 2026-05-05 15:50 | 51.15494 | -0.53248 | 15843 ft | 347 kts | 22° |
| 2026-05-05 15:50 | 51.17741 | -0.51781 | 15638 ft | 347 kts | 22° |
| 2026-05-05 15:51 | 51.19973 | -0.50322 | 15448 ft | 347 kts | 22° |
| 2026-05-05 15:51 | 51.22202 | -0.48864 | 15248 ft | 347 kts | 22° |
| 2026-05-05 15:51 | 51.24434 | -0.47402 | 15046 ft | 346 kts | 22° |
| 2026-05-05 15:51 | 51.26659 | -0.45944 | 14852 ft | 345 kts | 22° |
| 2026-05-05 15:52 | 51.28874 | -0.44491 | 14653 ft | 344 kts | 22° |
| 2026-05-05 15:52 | 51.31086 | -0.43037 | 14458 ft | 343 kts | 22° |
| 2026-05-05 15:52 | 51.33282 | -0.41593 | 14266 ft | 341 kts | 22° |
| 2026-05-05 15:52 | 51.35473 | -0.40150 | 14071 ft | 340 kts | 22° |
| 2026-05-05 15:53 | 51.37665 | -0.38707 | 13882 ft | 339 kts | 22° |
| 2026-05-05 15:53 | 51.39840 | -0.37272 | 13673 ft | 338 kts | 22° |
| 2026-05-05 15:53 | 51.42012 | -0.35838 | 13458 ft | 337 kts | 22° |
| 2026-05-05 15:53 | 51.44169 | -0.34389 | 13254 ft | 335 kts | 24° |
| 2026-05-05 15:54 | 51.46277 | -0.32829 | 13077 ft | 334 kts | 25° |
| 2026-05-05 15:54 | 51.48361 | -0.31221 | 12870 ft | 333 kts | 26° |
| 2026-05-05 15:54 | 51.50449 | -0.29597 | 12680 ft | 332 kts | 26° |
| 2026-05-05 15:54 | 51.52537 | -0.27977 | 12488 ft | 331 kts | 25° |
| 2026-05-05 15:55 | 51.54586 | -0.26394 | 12285 ft | 323 kts | 25° |
| 2026-05-05 15:55 | 51.56616 | -0.24829 | 12126 ft | 325 kts | 25° |
| 2026-05-05 15:55 | 51.58549 | -0.23021 | 11983 ft | 317 kts | 39° |
| 2026-05-05 15:55 | 51.60133 | -0.20634 | 11141 ft | 319 kts | 44° |
| 2026-05-05 15:56 | 51.61795 | -0.17932 | 8689 ft | 362 kts | 45° |
| 2026-05-05 15:56 | 51.63608 | -0.14973 | 7589 ft | 365 kts | 44° |
| 2026-05-05 15:56 | 51.65375 | -0.12284 | 7563 ft | 331 kts | 40° |
| 2026-05-05 15:56 | 51.67046 | -0.09890 | 6696 ft | 320 kts | 42° |
| 2026-05-05 15:57 | 51.68665 | -0.07299 | 4343 ft | 361 kts | 46° |
| 2026-05-05 15:57 | 51.70375 | -0.04401 | 3622 ft | 346 kts | 47° |
| 2026-05-05 15:57 | 51.71910 | -0.01679 | 3512 ft | 315 kts | 46° |
| 2026-05-05 15:57 | 51.73399 | 0.00750 | 3301 ft | 293 kts | 43° |
| 2026-05-05 15:58 | 51.74840 | 0.02918 | 3121 ft | 274 kts | 42° |
| 2026-05-05 15:58 | 51.76178 | 0.04916 | 2948 ft | 257 kts | 43° |
| 2026-05-05 15:58 | 51.77460 | 0.06845 | 2826 ft | 241 kts | 43° |
| 2026-05-05 15:58 | 51.78637 | 0.08625 | 2680 ft | 228 kts | 43° |
| 2026-05-05 15:59 | 51.79777 | 0.10340 | 2528 ft | 216 kts | 43° |
| 2026-05-05 15:59 | 51.80860 | 0.11973 | 2234 ft | 209 kts | 43° |
| 2026-05-05 15:59 | 51.81869 | 0.13496 | 1984 ft | 194 kts | 43° |
| 2026-05-05 15:59 | 51.82813 | 0.14922 | 1756 ft | 177 kts | 43° |
| 2026-05-05 16:00 | 51.83697 | 0.16252 | 1520 ft | 165 kts | 43° |
| 2026-05-05 16:00 | 51.84503 | 0.17465 | 1266 ft | 154 kts | 43° |
| 2026-05-05 16:00 | 51.85243 | 0.18578 | 1072 ft | 142 kts | 44° |
| 2026-05-05 16:00 | 51.85955 | 0.19650 | 852 ft | 138 kts | 45° |
| 2026-05-05 16:01 | 51.86656 | 0.20708 | 668 ft | 138 kts | 45° |
| 2026-05-05 16:01 | 51.87361 | 0.21773 | 487 ft | 141 kts | 46° |
| 2026-05-05 16:01 | 51.88068 | 0.22827 | 352 ft | 130 kts | 45° |
| 2026-05-05 16:01 | 51.88618 | 0.23660 | 337 ft | 57 kts | 43° |
| 2026-05-05 16:02 | 51.88789 | 0.23923 | 334 ft | 29 kts | 47° |
| 2026-05-05 16:02 | 51.88878 | 0.24203 | 339 ft | 27 kts | 76° |
| 2026-05-05 16:02 | 51.88905 | 0.24357 | 353 ft | 0 kts | 74° |
| 2026-05-05 16:03 | 51.88906 | 0.24364 | 344 ft | 2 kts | 75° |
| 2026-05-05 16:03 | 51.88912 | 0.24398 | 345 ft | 5 kts | 73° |
| 2026-05-05 16:04 | 51.88920 | 0.24470 | 347 ft | 8 kts | 91° |
| 2026-05-05 16:04 | 51.88882 | 0.24555 | 352 ft | 12 kts | 133° |
| 2026-05-05 16:04 | 51.88816 | 0.24676 | 350 ft | 16 kts | 121° |
| 2026-05-05 16:04 | 51.88824 | 0.24752 | 353 ft | 5 kts | 39° |
| 2026-05-05 16:05 | 51.88861 | 0.24806 | 354 ft | 14 kts | 42° |
| 2026-05-05 16:05 | 51.88941 | 0.24931 | 354 ft | 17 kts | 56° |
| 2026-05-05 16:05 | 51.88954 | 0.25046 | 348 ft | 6 kts | 91° |
| 2026-05-05 16:05 | 51.88959 | 0.25112 | 353 ft | 6 kts | 69° |
| 2026-05-05 16:06 | 51.88971 | 0.25150 | 353 ft | 0 kts | 63° |
| 2026-05-05 16:06 | 51.88975 | 0.25162 | 355 ft | 1 kts | 65° |
| 2026-05-05 16:06 | 51.88976 | 0.25164 | 353 ft | 0 kts | 65° |